Terminal Aerodrome Forecast
Issued by NWS Sioux Falls, SD

Home | Current Version | Previous Version | Graphics & Text | Print | Product List | Glossary On
Versions: 1 2 3 4 5 6 7 8 9 10 11 12 13 14 15
000
FTUS43 KFSD 211128
TAFFSD
TAF
KFSD 211128Z 2112/2212 30008KT P6SM SKC
     FM211600 34013KT P6SM SCT045
     FM212300 35005KT P6SM SKC
     FM220400 VRB03KT P6SM SKC=

USA.gov is the U.S. government's official web portal to all federal, state and local government web resources and services.